createdAt,value
2018-06-05T00:01:27.118Z,90.80
2018-06-05T00:03:55.800Z,91.50
2018-06-05T00:06:24.493Z,90.40
2018-06-05T00:08:53.189Z,88.70
2018-06-05T00:11:21.867Z,89.00
2018-06-05T00:13:50.538Z,89.40
2018-06-05T00:16:19.238Z,90.00
2018-06-05T00:18:47.933Z,90.50
2018-06-05T00:21:16.610Z,90.80
2018-06-05T00:26:13.830Z,89.40
2018-06-05T00:28:42.519Z,88.00
2018-06-05T00:31:11.185Z,89.30
2018-06-05T00:36:08.378Z,88.80
2018-06-05T00:38:37.070Z,89.60
2018-06-05T00:41:05.778Z,90.80
2018-06-05T00:43:34.465Z,90.80
2018-06-05T00:46:03.148Z,90.50
2018-06-05T00:48:31.880Z,90.30
2018-06-05T00:51:01.393Z,91.20
2018-06-05T00:53:31.465Z,90.40
2018-06-05T00:56:00.144Z,90.30
2018-06-05T00:58:28.837Z,90.20
2018-06-05T01:00:57.518Z,90.20
2018-06-05T01:03:26.214Z,90.20
2018-06-05T01:05:54.885Z,87.60
2018-06-05T01:08:23.609Z,84.70
2018-06-05T01:13:20.805Z,83.40
2018-06-05T01:15:49.518Z,85.70
2018-06-05T01:18:18.210Z,88.30
2018-06-05T01:20:46.905Z,88.90
2018-06-05T01:23:15.593Z,89.00
2018-06-05T01:25:44.332Z,89.70
2018-06-05T01:28:12.997Z,90.00
2018-06-05T01:33:10.190Z,90.80
2018-06-05T01:35:38.862Z,90.90
2018-06-05T01:38:07.564Z,91.20
2018-06-05T01:40:36.271Z,91.50
2018-06-05T01:43:04.974Z,90.60
2018-06-05T01:45:33.645Z,90.50
2018-06-05T01:48:02.322Z,91.20
2018-06-05T01:50:31.092Z,91.50
2018-06-05T01:52:59.770Z,91.20
2018-06-05T01:55:28.476Z,90.80
2018-06-05T01:57:57.142Z,91.20
2018-06-05T02:00:25.807Z,91.40
2018-06-05T02:05:23.001Z,91.20
2018-06-05T02:07:51.677Z,91.20
2018-06-05T02:10:20.348Z,91.40
2018-06-05T02:15:17.531Z,92.30
2018-06-05T02:17:46.212Z,91.70
2018-06-05T02:20:14.885Z,91.10
2018-06-05T02:22:43.580Z,90.80
2018-06-05T02:25:12.296Z,90.70
2018-06-05T02:27:40.958Z,90.50
2018-06-05T02:30:09.671Z,90.70
2018-06-05T02:32:38.398Z,91.10
2018-06-05T02:40:04.120Z,91.50
2018-06-05T02:42:32.821Z,91.30
2018-06-05T02:45:01.536Z,91.80
2018-06-05T02:47:30.217Z,92.00
2018-06-05T02:49:58.898Z,92.10
2018-06-05T02:57:24.590Z,91.90
2018-06-05T02:59:53.288Z,92.10
2018-06-05T03:02:21.973Z,91.90
2018-06-05T03:04:50.645Z,92.00
2018-06-05T03:07:19.395Z,92.30
2018-06-05T03:09:48.063Z,92.50
2018-06-05T03:12:16.745Z,92.40
2018-06-05T03:14:45.440Z,92.30
2018-06-05T03:19:42.572Z,92.90
2018-06-05T03:22:11.245Z,92.70
2018-06-05T03:24:39.940Z,92.50
2018-06-05T03:27:08.631Z,92.30
2018-06-05T03:29:37.297Z,92.50
2018-06-05T03:32:08.923Z,92.30
2018-06-05T03:34:37.605Z,92.60
2018-06-05T03:37:06.321Z,92.50
2018-06-05T03:39:35.013Z,92.50
2018-06-05T03:42:03.742Z,92.50
2018-06-05T03:47:00.965Z,92.90
2018-06-05T03:49:34.150Z,93.60
2018-06-05T03:52:02.855Z,91.90
2018-06-05T03:54:31.530Z,90.00
2018-06-05T03:57:00.230Z,89.10
2018-06-05T03:59:28.903Z,88.70
2018-06-05T04:01:57.621Z,88.50
2018-06-05T04:04:26.397Z,88.10
2018-06-05T04:06:55.055Z,88.00
2018-06-05T04:09:24.226Z,87.30
2018-06-05T04:11:53.018Z,87.60
2018-06-05T04:14:21.682Z,89.30
2018-06-05T04:16:51.289Z,89.40
2018-06-05T04:19:20.090Z,89.60
2018-06-05T04:21:48.770Z,89.70
2018-06-05T04:24:17.451Z,88.30
2018-06-05T04:26:46.145Z,86.10
2018-06-05T04:29:14.838Z,86.20
2018-06-05T04:31:43.498Z,85.80
2018-06-05T04:36:40.679Z,84.20
2018-06-05T04:39:09.398Z,84.50
2018-06-05T04:41:38.106Z,83.70
2018-06-05T04:44:06.798Z,83.90
2018-06-05T04:46:35.517Z,82.80
2018-06-05T04:49:04.212Z,82.80
2018-06-05T04:51:32.898Z,83.50
2018-06-05T04:54:01.571Z,82.10
2018-06-05T04:56:30.240Z,81.10
2018-06-05T05:03:55.945Z,83.10
2018-06-05T05:06:24.665Z,83.10
2018-06-05T05:08:53.927Z,83.50
2018-06-05T05:11:22.593Z,83.90
2018-06-05T05:13:51.283Z,83.90
2018-06-05T05:16:20.017Z,85.20
2018-06-05T05:18:48.750Z,85.50
2018-06-05T05:21:18.088Z,86.20
2018-06-05T05:23:46.770Z,87.10
2018-06-05T05:26:15.573Z,88.30
2018-06-05T05:28:44.266Z,87.50
2018-06-05T05:31:12.958Z,80.80
2018-06-05T05:36:10.146Z,78.30
2018-06-05T05:38:39.008Z,79.40
2018-06-05T05:43:36.210Z,80.20
2018-06-05T05:46:04.898Z,80.50
2018-06-05T05:48:33.591Z,81.20
2018-06-05T05:51:02.950Z,81.30
2018-06-05T06:00:57.946Z,82.10
2018-06-05T06:03:26.638Z,81.40
2018-06-05T06:05:55.301Z,81.70
2018-06-05T06:08:23.978Z,81.80
2018-06-05T06:10:52.759Z,81.20
2018-06-05T06:13:21.596Z,80.60
2018-06-05T06:15:50.290Z,81.50
2018-06-05T06:18:18.966Z,81.00
2018-06-05T06:20:47.666Z,80.00
2018-06-05T06:23:16.350Z,80.10
2018-06-05T06:25:45.021Z,79.70
2018-06-05T06:28:13.733Z,80.30
2018-06-05T06:30:42.443Z,79.20
2018-06-05T06:35:39.799Z,76.90
2018-06-05T06:40:37.049Z,75.70
2018-06-05T06:43:05.748Z,73.80
2018-06-05T06:45:34.454Z,74.40
2018-06-05T06:48:03.156Z,73.90
2018-06-05T06:50:31.860Z,74.20
2018-06-05T06:53:00.558Z,74.00
2018-06-05T06:55:29.239Z,74.90
2018-06-05T06:57:57.924Z,75.50
2018-06-05T07:00:26.711Z,76.10
2018-06-05T07:02:56.992Z,76.30
2018-06-05T07:05:25.706Z,75.70
2018-06-05T07:07:54.446Z,75.90
2018-06-05T07:10:23.143Z,75.60
2018-06-05T07:12:51.839Z,76.10
2018-06-05T07:15:20.548Z,76.00
2018-06-05T07:17:49.255Z,75.30
2018-06-05T07:20:17.934Z,75.10
2018-06-05T07:22:46.633Z,74.80
2018-06-05T07:25:15.364Z,74.90
2018-06-05T07:27:44.079Z,75.20
2018-06-05T07:30:12.801Z,74.80
2018-06-05T07:35:10.074Z,73.90
2018-06-05T07:37:38.812Z,74.80
2018-06-05T07:40:07.567Z,74.50
2018-06-05T07:42:36.290Z,74.80
2018-06-05T07:45:05.146Z,74.70
2018-06-05T07:50:02.431Z,74.80
2018-06-05T07:52:31.103Z,74.60
2018-06-05T07:57:28.349Z,73.70
2018-06-05T07:59:57.048Z,73.50
2018-06-05T08:02:25.799Z,72.70
2018-06-05T08:04:54.534Z,73.10
2018-06-05T08:07:23.267Z,72.80
2018-06-05T08:09:52.898Z,72.60
2018-06-05T08:12:21.614Z,71.30
2018-06-05T08:14:50.359Z,71.40
2018-06-05T08:17:19.073Z,70.80
2018-06-05T08:22:16.284Z,69.10
2018-06-05T08:24:44.993Z,67.60
2018-06-05T08:27:13.706Z,67.20
2018-06-05T08:32:16.294Z,66.80
2018-06-05T08:37:13.586Z,63.10
2018-06-05T08:39:42.309Z,60.40
2018-06-05T08:42:11.026Z,61.20
2018-06-05T08:44:39.729Z,58.20
2018-06-05T08:49:38.874Z,55.50
2018-06-05T08:52:07.606Z,56.80
2018-06-05T08:54:36.339Z,56.80
2018-06-05T08:57:05.101Z,56.80
2018-06-05T09:02:02.399Z,54.00
2018-06-05T09:04:31.151Z,53.80
2018-06-05T09:07:00.743Z,55.20
2018-06-05T09:09:29.466Z,55.20
2018-06-05T09:11:58.184Z,53.60
2018-06-05T09:14:26.889Z,54.70
2018-06-05T09:16:55.641Z,54.90
2018-06-05T09:19:24.366Z,53.40
2018-06-05T09:21:53.152Z,52.10
2018-06-05T09:24:21.925Z,47.80
2018-06-05T09:26:50.719Z,45.50
2018-06-05T09:29:19.494Z,45.30
2018-06-05T09:31:48.260Z,45.40
2018-06-05T09:34:17.075Z,43.90
2018-06-05T09:36:45.836Z,43.70
2018-06-05T09:39:14.621Z,42.30
2018-06-05T09:41:43.340Z,42.60
2018-06-05T09:44:12.069Z,42.80
2018-06-05T09:46:40.848Z,40.10
2018-06-05T09:49:09.579Z,41.40
2018-06-05T09:51:38.334Z,41.50
2018-06-05T09:54:07.086Z,39.90
2018-06-05T09:56:35.818Z,41.80
2018-06-05T09:59:04.599Z,41.30
2018-06-05T10:01:33.326Z,40.90
2018-06-05T10:04:02.046Z,40.70
2018-06-05T10:06:30.796Z,38.80
2018-06-05T10:08:59.592Z,39.40
2018-06-05T10:11:28.330Z,40.20
2018-06-05T10:18:54.186Z,42.30
2018-06-05T10:21:22.946Z,40.20
2018-06-05T10:23:51.661Z,41.50
2018-06-05T10:26:20.382Z,40.70
2018-06-05T10:28:49.124Z,39.90
2018-06-05T10:33:46.346Z,42.30
2018-06-05T10:36:15.101Z,41.60
2018-06-05T10:38:43.874Z,42.00
2018-06-05T10:41:12.596Z,40.60
2018-06-05T10:43:41.334Z,39.10
2018-06-05T10:48:38.864Z,39.50
2018-06-05T10:51:07.652Z,39.10
2018-06-05T10:53:36.422Z,40.30
2018-06-05T10:56:05.220Z,39.10
2018-06-05T10:58:34.068Z,39.30
2018-06-05T11:01:02.872Z,37.10
2018-06-05T11:03:31.607Z,38.60
2018-06-05T11:06:00.416Z,37.60
2018-06-05T11:08:29.189Z,37.50
2018-06-05T11:10:58.006Z,37.30
2018-06-05T11:13:26.809Z,34.20
2018-06-05T11:15:55.604Z,34.20
2018-06-05T11:18:24.386Z,34.90
2018-06-05T11:23:21.653Z,34.30
2018-06-05T11:25:50.487Z,33.30
2018-06-05T11:28:19.295Z,34.30
2018-06-05T11:30:48.153Z,34.40
2018-06-05T11:33:16.901Z,32.80
2018-06-05T11:35:45.668Z,34.70
2018-06-05T11:38:14.552Z,35.90
2018-06-05T11:40:43.317Z,34.70
2018-06-05T11:43:12.039Z,33.80
2018-06-05T11:48:09.331Z,34.80
2018-06-05T11:50:38.092Z,35.00
2018-06-05T11:55:35.394Z,34.20
2018-06-05T11:58:04.119Z,32.30
2018-06-05T12:00:32.816Z,32.90
2018-06-05T12:03:01.555Z,31.40
2018-06-05T12:05:30.311Z,30.10
2018-06-05T12:07:59.089Z,28.90
2018-06-05T12:10:27.833Z,30.00
2018-06-05T12:12:56.568Z,29.70
2018-06-05T12:15:25.376Z,30.00
2018-06-05T12:17:54.094Z,30.60
2018-06-05T12:20:22.806Z,30.80
2018-06-05T12:22:51.539Z,30.60
2018-06-05T12:25:20.261Z,31.40
2018-06-05T12:27:49.796Z,30.00
2018-06-05T12:30:18.527Z,30.50
2018-06-05T12:32:47.311Z,31.00
2018-06-05T12:35:16.145Z,31.00
2018-06-05T12:37:44.868Z,30.20
2018-06-05T12:40:13.614Z,31.40
2018-06-05T12:42:42.360Z,31.60
2018-06-05T12:45:11.081Z,33.80
2018-06-05T12:47:39.866Z,33.10
2018-06-05T12:50:08.606Z,31.30
2018-06-05T12:52:37.359Z,32.10
2018-06-05T12:57:34.671Z,30.10
2018-06-05T13:00:03.842Z,31.00
2018-06-05T13:02:32.843Z,30.00
2018-06-05T13:07:30.097Z,29.50
2018-06-05T13:09:58.915Z,29.60
2018-06-05T13:12:27.635Z,30.70
2018-06-05T13:14:57.429Z,30.10
2018-06-05T13:17:26.250Z,28.80
2018-06-05T13:19:55.014Z,29.00
2018-06-05T13:22:23.858Z,28.10
2018-06-05T13:29:49.968Z,30.20
2018-06-05T13:32:18.763Z,31.90
2018-06-05T13:34:47.526Z,32.60
2018-06-05T13:37:16.276Z,31.90
2018-06-05T13:42:13.531Z,34.90
2018-06-05T13:44:42.254Z,36.20
2018-06-05T13:47:11.032Z,37.50
2018-06-05T13:49:39.759Z,35.90
2018-06-05T13:52:08.509Z,35.70
2018-06-05T13:54:37.201Z,35.60
2018-06-05T13:57:05.958Z,37.60
2018-06-05T13:59:34.687Z,34.20
2018-06-05T14:02:03.403Z,39.10
2018-06-05T14:04:32.174Z,40.90
2018-06-05T14:07:00.901Z,42.00
2018-06-05T14:11:58.191Z,39.80
2018-06-05T14:14:26.906Z,39.10
2018-06-05T14:17:01.154Z,36.60
2018-06-05T14:19:30.235Z,33.10
2018-06-05T14:21:58.959Z,33.80
2018-06-05T14:26:56.158Z,32.20
2018-06-05T14:29:24.867Z,34.20
2018-06-05T14:31:53.561Z,35.90
2018-06-05T14:34:22.278Z,36.20
2018-06-05T14:39:19.501Z,36.70
2018-06-05T14:41:48.379Z,38.30
2018-06-05T14:44:17.828Z,36.60
2018-06-05T14:49:16.466Z,38.00
2018-06-05T14:51:46.009Z,37.10
2018-06-05T14:54:15.563Z,38.20
2018-06-05T14:56:45.117Z,37.00
2018-06-05T14:59:14.881Z,36.20
2018-06-05T15:01:44.306Z,37.60
2018-06-05T15:04:13.014Z,35.40
2018-06-05T15:06:41.709Z,34.60
2018-06-05T15:09:10.426Z,35.70
2018-06-05T15:14:07.614Z,34.70
2018-06-05T15:16:36.375Z,35.30
2018-06-05T15:19:05.342Z,36.50
2018-06-05T15:21:34.062Z,37.00
2018-06-05T15:26:31.356Z,41.00
2018-06-05T15:29:00.112Z,38.80
2018-06-05T15:31:28.819Z,38.70
2018-06-05T15:33:57.574Z,37.50
2018-06-05T15:36:26.312Z,38.30
2018-06-05T15:38:55.055Z,37.60
2018-06-05T15:41:23.826Z,39.30
2018-06-05T15:43:52.550Z,42.00
2018-06-05T15:46:21.235Z,39.40
2018-06-05T15:48:49.962Z,39.50
2018-06-05T15:51:18.635Z,40.40
2018-06-05T15:53:47.454Z,43.20
2018-06-05T15:56:16.199Z,44.70
2018-06-05T15:58:44.947Z,46.50
2018-06-05T16:01:13.679Z,51.30
2018-06-05T16:03:42.389Z,54.50
2018-06-05T16:06:11.132Z,57.20
2018-06-05T16:08:40.185Z,59.90
2018-06-05T16:11:08.919Z,62.80
2018-06-05T16:13:37.647Z,63.80
2018-06-05T16:16:06.421Z,62.00
2018-06-05T16:18:35.196Z,61.30
2018-06-05T16:21:04.934Z,61.50
2018-06-05T16:23:33.641Z,59.40
2018-06-05T16:26:02.471Z,57.60
2018-06-05T16:28:31.167Z,57.00
2018-06-05T16:30:59.899Z,55.10
2018-06-05T16:33:28.720Z,55.10
2018-06-05T16:35:57.429Z,51.90
2018-06-05T16:38:26.192Z,52.30
2018-06-05T16:40:55.927Z,50.50
2018-06-05T16:43:24.686Z,50.90
2018-06-05T16:45:53.467Z,50.40
2018-06-05T16:50:50.781Z,45.20
2018-06-05T16:53:19.552Z,47.90
2018-06-05T16:55:48.385Z,44.70
2018-06-05T16:58:17.267Z,44.10
2018-06-05T17:00:46.070Z,45.40
2018-06-05T17:03:14.939Z,45.50
2018-06-05T17:05:43.654Z,43.90
2018-06-05T17:10:40.947Z,46.40
2018-06-05T17:13:09.759Z,46.10
2018-06-05T17:15:38.524Z,46.80
2018-06-05T17:18:07.254Z,47.40
2018-06-05T17:20:36.006Z,48.60
2018-06-05T17:23:05.904Z,48.70
2018-06-05T17:25:34.653Z,49.80
2018-06-05T17:28:03.374Z,49.70
2018-06-05T17:30:32.996Z,50.20
2018-06-05T17:33:01.736Z,51.20
2018-06-05T17:35:30.474Z,51.10
2018-06-05T17:37:59.198Z,50.90
2018-06-05T17:40:28.016Z,52.20
2018-06-05T17:42:56.718Z,53.60
2018-06-05T17:45:25.469Z,52.10
2018-06-05T17:47:54.195Z,53.70
2018-06-05T17:50:22.905Z,53.80
2018-06-05T17:52:51.625Z,56.20
2018-06-05T17:55:20.334Z,58.40
2018-06-05T17:57:49.120Z,59.90
2018-06-05T18:00:17.847Z,60.00
2018-06-05T18:02:46.539Z,61.70
2018-06-05T18:05:15.268Z,62.20
2018-06-05T18:07:43.991Z,61.70
2018-06-05T18:10:12.713Z,63.50
2018-06-05T18:12:41.408Z,61.70
2018-06-05T18:15:10.159Z,58.50
2018-06-05T18:17:38.853Z,58.90
2018-06-05T18:20:07.571Z,59.30
2018-06-05T18:22:36.336Z,59.10
2018-06-05T18:25:06.306Z,59.00
2018-06-05T18:27:35.066Z,59.30
2018-06-05T18:30:05.041Z,59.10
2018-06-05T18:32:33.768Z,59.80
2018-06-05T18:35:02.526Z,60.20
2018-06-05T18:37:31.303Z,60.20
2018-06-05T18:40:00.029Z,60.60
2018-06-05T18:42:28.824Z,61.60
2018-06-05T18:44:57.728Z,60.90
2018-06-05T18:47:26.478Z,61.20
2018-06-05T18:49:58.439Z,62.30
2018-06-05T18:52:27.221Z,62.10
2018-06-05T18:54:56.047Z,62.40
2018-06-05T18:57:24.849Z,63.30
2018-06-05T18:59:53.686Z,63.80
2018-06-05T19:02:22.461Z,63.00
2018-06-05T19:04:51.243Z,63.00
2018-06-05T19:07:19.954Z,63.20
2018-06-05T19:09:48.944Z,63.40
2018-06-05T19:12:17.760Z,64.00
2018-06-05T19:14:46.433Z,64.50
2018-06-05T19:17:15.243Z,65.50
2018-06-05T19:19:44.731Z,65.30
2018-06-05T19:22:13.451Z,65.60
2018-06-05T19:24:42.508Z,65.90
2018-06-05T19:27:11.337Z,67.00
2018-06-05T19:29:40.156Z,67.60
2018-06-05T19:32:08.921Z,68.50
2018-06-05T19:34:37.688Z,67.90
2018-06-05T19:37:06.451Z,68.20
2018-06-05T19:39:35.198Z,68.10
2018-06-05T19:42:04.056Z,67.50
2018-06-05T19:47:01.423Z,68.20
2018-06-05T19:51:58.710Z,69.60
2018-06-05T19:54:27.511Z,69.90
2018-06-05T19:56:56.279Z,69.90
2018-06-05T19:59:25.046Z,69.60
2018-06-05T20:01:53.766Z,68.50
2018-06-05T20:04:23.524Z,68.10
2018-06-05T20:06:52.315Z,68.30
2018-06-05T20:09:21.051Z,68.20
2018-06-05T20:11:49.826Z,68.50
2018-06-05T20:14:18.596Z,69.00
2018-06-05T20:21:44.377Z,69.30
2018-06-05T20:24:13.699Z,69.70
2018-06-05T20:26:42.541Z,69.90
2018-06-05T20:31:40.706Z,70.00
2018-06-05T20:34:09.481Z,70.50
2018-06-05T20:36:38.328Z,70.00
2018-06-05T20:39:09.876Z,69.30
2018-06-05T20:41:39.699Z,68.60
2018-06-05T20:44:09.077Z,68.60
2018-06-05T20:46:38.226Z,68.40
2018-06-05T20:49:07.080Z,70.10
2018-06-05T20:51:35.918Z,71.60
2018-06-05T20:54:04.715Z,71.80
2018-06-05T20:56:33.469Z,72.10
2018-06-05T20:59:02.211Z,73.20
2018-06-05T21:01:31.003Z,73.30
2018-06-05T21:03:59.754Z,74.00
2018-06-05T21:06:28.541Z,74.50
2018-06-05T21:08:57.276Z,74.20
2018-06-05T21:11:26.018Z,72.80
2018-06-05T21:13:54.727Z,73.20
2018-06-05T21:16:23.459Z,74.10
2018-06-05T21:18:52.165Z,73.70
2018-06-05T21:21:20.899Z,73.60
2018-06-05T21:23:49.593Z,73.10
2018-06-05T21:26:18.323Z,73.50
2018-06-05T21:28:47.066Z,74.70
2018-06-05T21:31:17.389Z,75.40
2018-06-05T21:33:46.100Z,76.30
2018-06-05T21:36:14.790Z,77.10
2018-06-05T21:38:43.498Z,77.20
2018-06-05T21:43:40.892Z,78.30
2018-06-05T21:46:09.614Z,77.90
2018-06-05T21:48:38.386Z,77.70
2018-06-05T21:51:07.208Z,77.90
2018-06-05T21:53:36.886Z,78.10
2018-06-05T21:56:05.911Z,78.60
2018-06-05T21:58:34.593Z,79.10
2018-06-05T22:01:03.666Z,79.20
2018-06-05T22:03:32.406Z,79.70
2018-06-05T22:06:01.074Z,79.10
2018-06-05T22:08:29.754Z,77.70
2018-06-05T22:10:59.204Z,78.10
2018-06-05T22:13:27.881Z,78.70
2018-06-05T22:15:56.618Z,79.30
2018-06-05T22:18:25.751Z,79.60
2018-06-05T22:20:54.441Z,80.20
2018-06-05T22:23:23.119Z,81.10
2018-06-05T22:25:51.818Z,81.00
2018-06-05T22:30:49.039Z,81.00
2018-06-05T22:33:20.958Z,80.20
2018-06-05T22:35:49.647Z,80.40
2018-06-05T22:38:18.434Z,80.50
2018-06-05T22:40:47.092Z,79.40
2018-06-05T22:43:15.776Z,79.20
2018-06-05T22:45:44.481Z,79.40
2018-06-05T22:50:41.681Z,79.70
2018-06-05T22:53:10.407Z,79.30
2018-06-05T22:55:39.071Z,79.70
2018-06-05T22:58:07.779Z,80.50
2018-06-05T23:00:36.451Z,79.50
2018-06-05T23:03:05.174Z,79.10
2018-06-05T23:08:02.341Z,79.50
2018-06-05T23:10:31.034Z,79.80
2018-06-05T23:12:59.741Z,80.00
2018-06-05T23:15:28.414Z,81.20
2018-06-05T23:17:57.073Z,82.80
2018-06-05T23:20:25.821Z,83.00
2018-06-05T23:22:54.506Z,84.70
2018-06-05T23:25:23.193Z,84.30
2018-06-05T23:27:51.894Z,84.80
2018-06-05T23:30:20.598Z,85.20
2018-06-05T23:32:51.821Z,85.10
2018-06-05T23:35:20.595Z,85.20
2018-06-05T23:37:49.273Z,85.10
2018-06-05T23:40:17.938Z,85.90
2018-06-05T23:42:46.609Z,85.20
2018-06-05T23:45:15.394Z,85.00
2018-06-05T23:47:44.066Z,85.50
2018-06-05T23:50:12.751Z,85.80
2018-06-05T23:55:09.946Z,87.40
2018-06-05T23:57:38.634Z,87.50
